createdAt,value
2022-08-03T00:00:36.397Z,2.20
2022-08-03T00:03:19.190Z,2.45
2022-08-03T00:06:04.080Z,2.33
2022-08-03T00:08:48.685Z,2.42
2022-08-03T00:11:31.389Z,2.15
2022-08-03T00:14:14.218Z,2.55
2022-08-03T00:16:58.936Z,1.98
2022-08-03T00:19:41.745Z,2.35
2022-08-03T00:22:24.698Z,2.45
2022-08-03T00:25:07.949Z,2.38
2022-08-03T00:27:50.888Z,2.28
2022-08-03T00:30:33.948Z,2.58
2022-08-03T00:33:18.370Z,1.85
2022-08-03T00:36:03.128Z,2.47
2022-08-03T00:38:48.610Z,2.50
2022-08-03T00:41:31.635Z,2.35
2022-08-03T00:44:14.366Z,2.25
2022-08-03T00:46:57.180Z,2.15
2022-08-03T00:49:41.578Z,2.10
2022-08-03T00:52:24.449Z,2.00
2022-08-03T00:55:07.400Z,2.50
2022-08-03T00:57:50.448Z,2.25
2022-08-03T01:00:35.902Z,2.33
2022-08-03T01:03:18.579Z,2.40
2022-08-03T01:06:10.051Z,2.30
2022-08-03T01:08:55.587Z,2.25
2022-08-03T01:12:00.811Z,2.55
2022-08-03T01:14:46.931Z,2.42
2022-08-03T01:17:33.114Z,2.33
2022-08-03T01:20:16.225Z,2.40
2022-08-03T01:23:07.852Z,2.38
2022-08-03T01:26:01.320Z,2.38
2022-08-03T01:28:57.730Z,2.47
2022-08-03T01:33:00.026Z,2.42
2022-08-03T01:34:48.797Z,2.50
2022-08-03T01:37:34.001Z,2.35
2022-08-03T01:40:22.303Z,2.38
2022-08-03T01:43:05.562Z,2.33
2022-08-03T01:45:49.681Z,2.40
2022-08-03T01:48:34.731Z,2.60
2022-08-03T01:51:19.392Z,2.42
2022-08-03T01:54:02.740Z,2.40
2022-08-03T01:56:46.568Z,2.53
2022-08-03T01:59:30.298Z,2.50
2022-08-03T02:02:19.534Z,2.53
2022-08-03T02:05:18.844Z,2.42
2022-08-03T02:08:02.938Z,2.30
2022-08-03T02:10:46.187Z,2.67
2022-08-03T02:13:29.769Z,2.30
2022-08-03T02:16:12.860Z,2.60
2022-08-03T02:18:56.256Z,2.75
2022-08-03T02:21:56.531Z,2.60
2022-08-03T02:24:45.151Z,2.38
2022-08-03T02:27:36.842Z,2.63
2022-08-03T02:30:23.030Z,2.50
2022-08-03T02:33:06.851Z,2.50
2022-08-03T02:35:52.308Z,2.60
2022-08-03T02:38:38.016Z,2.60
2022-08-03T02:41:24.051Z,2.53
2022-08-03T02:44:09.246Z,2.45
2022-08-03T02:46:54.732Z,2.50
2022-08-03T02:49:51.331Z,2.40
2022-08-03T02:52:35.960Z,2.42
2022-08-03T02:55:20.849Z,2.28
2022-08-03T02:58:04.160Z,2.42
2022-08-03T03:00:47.325Z,2.58
2022-08-03T03:03:31.857Z,2.72
2022-08-03T03:06:22.495Z,2.28
2022-08-03T03:09:07.965Z,2.60
2022-08-03T03:11:52.680Z,2.80
2022-08-03T03:14:35.909Z,2.40
2022-08-03T03:17:19.477Z,2.60
2022-08-03T03:20:02.559Z,2.63
2022-08-03T03:22:46.099Z,2.83
2022-08-03T03:25:29.430Z,2.60
2022-08-03T03:28:13.617Z,2.45
2022-08-03T03:30:56.505Z,2.75
2022-08-03T03:33:39.427Z,2.70
2022-08-03T03:36:22.232Z,2.72
2022-08-03T03:39:15.150Z,2.58
2022-08-03T03:41:59.325Z,2.90
2022-08-03T03:44:43.482Z,2.90
2022-08-03T03:47:32.747Z,2.85
2022-08-03T03:50:16.512Z,2.78
2022-08-03T03:52:59.487Z,2.50
2022-08-03T03:56:01.673Z,2.80
2022-08-03T03:58:45.294Z,2.70
2022-08-03T04:01:34.286Z,2.78
2022-08-03T04:04:34.682Z,2.55
2022-08-03T04:07:43.535Z,3.20
2022-08-03T04:10:42.957Z,2.70
2022-08-03T04:13:26.417Z,2.95
2022-08-03T04:16:10.408Z,2.55
2022-08-03T04:18:56.696Z,2.70
2022-08-03T04:21:41.660Z,2.90
2022-08-03T04:24:26.658Z,2.97
2022-08-03T04:27:11.270Z,2.75
2022-08-03T04:29:55.852Z,2.60
2022-08-03T04:32:44.180Z,2.47
2022-08-03T04:35:54.729Z,2.47
2022-08-03T04:38:35.329Z,2.58
2022-08-03T04:41:18.571Z,2.60
2022-08-03T04:44:02.044Z,2.47
2022-08-03T04:46:52.482Z,2.80
2022-08-03T04:49:37.145Z,3.03
2022-08-03T04:52:21.449Z,2.70
2022-08-03T04:55:04.630Z,2.70
2022-08-03T04:57:47.293Z,2.85
2022-08-03T05:00:30.105Z,2.30
2022-08-03T05:03:20.246Z,2.80
2022-08-03T05:06:11.617Z,3.20
2022-08-03T05:08:56.211Z,3.10
2022-08-03T05:11:39.331Z,3.10
2022-08-03T05:14:28.066Z,3.35
2022-08-03T05:17:11.208Z,3.15
2022-08-03T05:19:54.111Z,3.47
2022-08-03T05:22:36.904Z,3.50
2022-08-03T05:25:24.447Z,3.40
2022-08-03T05:28:09.839Z,3.47
2022-08-03T05:30:52.624Z,3.22
2022-08-03T05:33:35.416Z,3.40
2022-08-03T05:36:18.241Z,3.17
2022-08-03T05:39:02.784Z,3.40
2022-08-03T05:41:47.199Z,3.20
2022-08-03T05:44:31.029Z,3.33
2022-08-03T05:47:14.337Z,3.47
2022-08-03T05:49:58.915Z,3.47
2022-08-03T05:52:43.111Z,3.50
2022-08-03T05:55:26.185Z,2.90
2022-08-03T05:58:10.359Z,3.33
2022-08-03T06:00:53.993Z,3.65
2022-08-03T06:03:36.788Z,3.13
2022-08-03T06:06:19.711Z,3.50
2022-08-03T06:09:02.504Z,3.30
2022-08-03T06:11:45.448Z,2.97
2022-08-03T06:14:30.240Z,2.88
2022-08-03T06:17:13.151Z,3.05
2022-08-03T06:19:58.070Z,3.72
2022-08-03T06:22:44.509Z,2.97
2022-08-03T06:25:33.775Z,2.92
2022-08-03T06:28:51.404Z,3.10
2022-08-03T06:31:22.899Z,2.95
2022-08-03T06:34:33.905Z,3.00
2022-08-03T06:37:08.966Z,3.25
2022-08-03T06:39:51.953Z,2.92
2022-08-03T06:42:35.015Z,2.78
2022-08-03T06:45:18.669Z,3.00
2022-08-03T06:48:03.196Z,3.05
2022-08-03T06:50:46.040Z,3.08
2022-08-03T06:53:28.825Z,3.10
2022-08-03T06:56:11.744Z,3.00
2022-08-03T06:58:54.575Z,2.55
2022-08-03T07:01:37.328Z,2.50
2022-08-03T07:04:21.429Z,2.47
2022-08-03T07:07:04.258Z,2.53
2022-08-03T07:09:56.609Z,2.83
2022-08-03T07:12:52.721Z,2.40
2022-08-03T07:15:55.442Z,2.53
2022-08-03T07:18:39.442Z,2.25
2022-08-03T07:21:24.121Z,2.42
2022-08-03T07:24:07.590Z,2.22
2022-08-03T07:26:50.367Z,2.47
2022-08-03T07:29:34.691Z,2.40
2022-08-03T07:32:18.058Z,2.50
2022-08-03T07:35:01.716Z,2.15
2022-08-03T07:37:54.194Z,2.20
2022-08-03T07:40:37.719Z,1.92
2022-08-03T07:43:20.716Z,2.28
2022-08-03T07:46:03.488Z,2.20
2022-08-03T07:48:46.248Z,2.08
2022-08-03T07:51:29.000Z,2.33
2022-08-03T07:54:13.206Z,2.10
2022-08-03T07:56:56.022Z,2.10
2022-08-03T07:59:57.154Z,1.88
2022-08-03T08:02:43.022Z,1.70
2022-08-03T08:05:26.079Z,2.08
2022-08-03T08:08:08.946Z,1.70
2022-08-03T08:10:58.371Z,1.75
2022-08-03T08:13:41.594Z,2.22
2022-08-03T08:16:24.311Z,1.83
2022-08-03T08:19:07.134Z,2.10
2022-08-03T08:21:53.901Z,2.22
2022-08-03T08:24:44.904Z,2.00
2022-08-03T08:28:29.975Z,1.92
2022-08-03T08:30:33.263Z,1.63
2022-08-03T08:33:23.075Z,1.80
2022-08-03T08:36:14.765Z,1.70
2022-08-03T08:38:58.079Z,1.70
2022-08-03T08:41:40.863Z,1.17
2022-08-03T08:44:31.718Z,1.55
2022-08-03T08:47:15.372Z,1.85
2022-08-03T08:50:09.812Z,1.20
2022-08-03T08:52:54.064Z,1.40
2022-08-03T08:55:56.613Z,1.30
2022-08-03T08:58:41.929Z,1.40
2022-08-03T09:01:26.358Z,1.42
2022-08-03T09:04:09.532Z,1.60
2022-08-03T09:07:17.558Z,1.25
2022-08-03T09:10:04.695Z,0.80
2022-08-03T09:12:55.247Z,0.47
2022-08-03T09:15:38.268Z,0.50
2022-08-03T09:18:30.542Z,0.40
2022-08-03T09:21:35.485Z,0.40
2022-08-03T09:24:40.617Z,0.40
2022-08-03T09:27:26.159Z,0.50
2022-08-03T09:30:33.901Z,0.40
2022-08-03T09:33:16.785Z,0.38
2022-08-03T09:36:01.047Z,0.60
2022-08-03T09:38:43.945Z,0.50
2022-08-03T09:41:26.756Z,0.40
2022-08-03T09:44:24.580Z,0.35
2022-08-03T09:47:08.421Z,0.50
2022-08-03T09:49:57.955Z,0.47
2022-08-03T09:52:50.078Z,0.40
2022-08-03T09:56:33.219Z,0.50
2022-08-03T09:58:46.095Z,0.55
2022-08-03T10:01:33.440Z,0.40
2022-08-03T10:04:17.913Z,0.40
2022-08-03T10:07:04.939Z,0.50
2022-08-03T10:09:56.343Z,0.35
2022-08-03T10:12:39.355Z,0.40
2022-08-03T10:16:21.153Z,0.47
2022-08-03T10:18:24.845Z,0.40
2022-08-03T10:21:15.284Z,0.30
2022-08-03T10:23:58.288Z,0.32
2022-08-03T10:26:49.799Z,0.50
2022-08-03T10:29:35.749Z,0.40
2022-08-03T10:32:20.484Z,0.40
2022-08-03T10:35:19.575Z,0.47
2022-08-03T10:38:06.335Z,0.35
2022-08-03T10:40:55.808Z,0.40
2022-08-03T10:43:48.961Z,0.40
2022-08-03T10:46:32.547Z,0.40
2022-08-03T10:49:15.971Z,0.30
2022-08-03T10:51:58.865Z,0.40
2022-08-03T10:54:57.353Z,0.43
2022-08-03T10:57:47.373Z,0.50
2022-08-03T11:00:49.275Z,0.30
2022-08-03T11:03:32.779Z,0.30
2022-08-03T11:06:16.939Z,0.30
2022-08-03T11:09:14.582Z,0.50
2022-08-03T11:11:57.424Z,0.40
2022-08-03T11:14:47.300Z,0.28
2022-08-03T11:17:31.668Z,0.50
2022-08-03T11:20:15.853Z,0.40
2022-08-03T11:23:01.176Z,0.30
2022-08-03T11:26:02.760Z,0.40
2022-08-03T11:28:47.302Z,0.50
2022-08-03T11:31:57.228Z,0.30
2022-08-03T11:34:55.003Z,0.35
2022-08-03T11:38:03.345Z,0.38
2022-08-03T11:40:49.330Z,0.63
2022-08-03T11:43:47.717Z,0.40
2022-08-03T11:46:37.796Z,0.38
2022-08-03T11:49:23.686Z,0.40
2022-08-03T11:52:06.565Z,0.47
2022-08-03T11:54:56.632Z,0.30
2022-08-03T11:59:10.935Z,0.30
2022-08-03T12:00:43.114Z,0.30
2022-08-03T12:03:26.109Z,0.30
2022-08-03T12:06:12.540Z,0.30
2022-08-03T12:08:56.073Z,0.30
2022-08-03T12:11:40.672Z,0.40
2022-08-03T12:14:50.339Z,0.30
2022-08-03T12:17:35.549Z,0.32
2022-08-03T12:20:31.304Z,0.40
2022-08-03T12:23:18.459Z,0.30
2022-08-03T12:26:07.316Z,0.38
2022-08-03T12:28:52.007Z,0.38
2022-08-03T12:31:34.837Z,0.30
2022-08-03T12:34:17.620Z,0.45
2022-08-03T12:37:01.079Z,0.40
2022-08-03T12:40:00.443Z,0.35
2022-08-03T12:42:47.015Z,0.40
2022-08-03T12:45:32.077Z,0.28
2022-08-03T12:48:14.844Z,0.20
2022-08-03T12:51:09.370Z,0.25
2022-08-03T12:53:53.331Z,0.35
2022-08-03T12:56:36.540Z,0.30
2022-08-03T12:59:25.299Z,0.38
2022-08-03T13:02:17.693Z,0.40
2022-08-03T13:05:10.950Z,0.30
2022-08-03T13:07:53.826Z,0.25
2022-08-03T13:10:36.585Z,0.30
2022-08-03T13:13:20.802Z,0.30
2022-08-03T13:16:03.867Z,0.30
2022-08-03T13:18:48.205Z,0.40
2022-08-03T13:21:31.448Z,0.30
2022-08-03T13:24:14.463Z,0.30
2022-08-03T13:26:57.323Z,0.35
2022-08-03T13:29:40.267Z,0.30
2022-08-03T13:32:23.763Z,0.30
2022-08-03T13:35:08.789Z,0.38
2022-08-03T13:37:51.552Z,0.30
2022-08-03T13:40:41.551Z,0.40
2022-08-03T13:43:24.603Z,0.30
2022-08-03T13:46:10.744Z,0.40
2022-08-03T13:48:53.838Z,0.40
2022-08-03T13:51:38.087Z,0.47
2022-08-03T13:54:21.035Z,0.30
2022-08-03T13:58:05.775Z,0.20
2022-08-03T14:00:07.845Z,0.30
2022-08-03T14:02:50.658Z,0.40
2022-08-03T14:05:33.699Z,0.40
2022-08-03T14:08:18.274Z,0.55
2022-08-03T14:11:01.147Z,1.00
2022-08-03T14:13:43.980Z,1.13
2022-08-03T14:16:26.887Z,1.05
2022-08-03T14:19:09.714Z,1.10
2022-08-03T14:22:06.215Z,1.00
2022-08-03T14:24:51.119Z,1.10
2022-08-03T14:27:34.454Z,1.00
2022-08-03T14:30:17.364Z,1.38
2022-08-03T14:33:00.910Z,0.90
2022-08-03T14:35:43.915Z,0.88
2022-08-03T14:38:26.639Z,0.98
2022-08-03T14:41:12.367Z,1.20
2022-08-03T14:44:03.040Z,1.10
2022-08-03T14:46:45.928Z,1.10
2022-08-03T14:50:30.616Z,0.90
2022-08-03T14:52:31.639Z,1.20
2022-08-03T14:55:14.446Z,0.93
2022-08-03T14:57:58.605Z,1.00
2022-08-03T15:00:41.625Z,0.80
2022-08-03T15:03:25.248Z,0.47
2022-08-03T15:06:11.058Z,0.30
2022-08-03T15:09:21.229Z,0.20
2022-08-03T15:11:57.038Z,0.30
2022-08-03T15:14:41.178Z,0.20
2022-08-03T15:17:23.928Z,0.30
2022-08-03T15:20:28.773Z,0.20
2022-08-03T15:23:11.582Z,0.20
2022-08-03T15:26:28.245Z,0.30
2022-08-03T15:28:57.143Z,0.20
2022-08-03T15:31:41.289Z,0.30
2022-08-03T15:34:24.145Z,0.28
2022-08-03T15:37:16.349Z,0.20
2022-08-03T15:40:01.029Z,0.20
2022-08-03T15:42:43.975Z,0.28
2022-08-03T15:45:26.918Z,0.20
2022-08-03T15:48:12.091Z,0.40
2022-08-03T15:50:55.401Z,0.20
2022-08-03T15:53:38.383Z,0.30
2022-08-03T15:56:21.190Z,0.30
2022-08-03T15:59:13.463Z,0.20
2022-08-03T16:01:57.418Z,0.20
2022-08-03T16:04:41.611Z,0.20
2022-08-03T16:07:38.346Z,0.20
2022-08-03T16:10:21.676Z,0.30
2022-08-03T16:13:04.477Z,0.30
2022-08-03T16:15:48.638Z,0.30
2022-08-03T16:18:32.042Z,0.20
2022-08-03T16:21:19.399Z,0.20
2022-08-03T16:24:03.858Z,0.20
2022-08-03T16:26:51.791Z,0.10
2022-08-03T16:29:34.815Z,0.20
2022-08-03T16:32:17.611Z,0.20
2022-08-03T16:35:01.059Z,0.20
2022-08-03T16:37:56.234Z,0.10
2022-08-03T16:40:39.623Z,0.10
2022-08-03T16:43:23.155Z,0.30
2022-08-03T16:46:09.043Z,0.30
2022-08-03T16:48:51.775Z,0.20
2022-08-03T16:51:40.434Z,0.20
2022-08-03T16:54:34.907Z,0.20
2022-08-03T16:57:29.759Z,0.30
2022-08-03T17:00:34.283Z,0.10
2022-08-03T17:03:24.118Z,0.15
2022-08-03T17:06:10.177Z,0.22
2022-08-03T17:08:55.547Z,0.30
2022-08-03T17:11:44.135Z,0.17
2022-08-03T17:14:30.189Z,0.15
2022-08-03T17:17:16.655Z,0.20
2022-08-03T17:20:00.238Z,0.20
2022-08-03T17:22:48.489Z,0.10
2022-08-03T17:25:39.904Z,0.20
2022-08-03T17:28:49.758Z,0.10
2022-08-03T17:31:48.483Z,0.20
2022-08-03T17:34:32.279Z,0.20
2022-08-03T17:37:49.884Z,0.20
2022-08-03T17:40:19.773Z,0.10
2022-08-03T17:44:13.476Z,0.20
2022-08-03T17:46:13.864Z,0.20
2022-08-03T17:48:56.879Z,0.20
2022-08-03T17:51:46.511Z,0.20
2022-08-03T17:55:56.991Z,0.20
2022-08-03T17:58:02.273Z,0.13
2022-08-03T18:02:03.134Z,0.20
2022-08-03T18:04:13.597Z,0.20
2022-08-03T18:06:58.165Z,0.20
2022-08-03T18:10:04.538Z,0.15
2022-08-03T18:12:47.581Z,0.20
2022-08-03T18:15:35.797Z,0.28
2022-08-03T18:18:29.345Z,0.25
2022-08-03T18:21:17.498Z,0.20
2022-08-03T18:24:00.838Z,0.20
2022-08-03T18:26:48.496Z,0.20
2022-08-03T18:29:31.821Z,0.17
2022-08-03T18:32:16.916Z,0.20
2022-08-03T18:35:01.826Z,0.30
2022-08-03T18:37:51.986Z,0.15
2022-08-03T18:40:35.255Z,0.10
2022-08-03T18:43:46.745Z,0.15
2022-08-03T18:46:36.750Z,0.20
2022-08-03T18:49:30.359Z,0.10
2022-08-03T18:52:16.591Z,0.10
2022-08-03T18:55:14.094Z,0.20
2022-08-03T18:58:09.310Z,0.20
2022-08-03T19:01:58.235Z,0.10
2022-08-03T19:04:12.596Z,0.30
2022-08-03T19:06:59.998Z,0.20
2022-08-03T19:09:48.366Z,0.15
2022-08-03T19:12:47.867Z,0.20
2022-08-03T19:15:37.012Z,0.15
2022-08-03T19:18:24.555Z,0.10
2022-08-03T19:21:15.482Z,0.17
2022-08-03T19:24:01.350Z,0.25
2022-08-03T19:26:48.552Z,0.20
2022-08-03T19:29:58.876Z,0.25
2022-08-03T19:32:41.330Z,1.40
2022-08-03T19:35:51.611Z,1.10
2022-08-03T19:38:34.798Z,1.40
2022-08-03T19:41:18.752Z,1.30
2022-08-03T19:44:04.996Z,1.33
2022-08-03T19:46:53.491Z,1.52
2022-08-03T19:49:57.051Z,1.60
2022-08-03T19:52:43.881Z,1.33
2022-08-03T19:55:29.082Z,1.48
2022-08-03T19:58:20.279Z,1.40
2022-08-03T20:01:19.418Z,1.42
2022-08-03T20:04:04.559Z,1.55
2022-08-03T20:06:57.061Z,1.20
2022-08-03T20:09:44.693Z,1.92
2022-08-03T20:12:28.889Z,1.55
2022-08-03T20:15:12.382Z,1.25
2022-08-03T20:17:58.582Z,1.33
2022-08-03T20:20:41.876Z,1.50
2022-08-03T20:23:28.040Z,1.45
2022-08-03T20:26:21.109Z,1.40
2022-08-03T20:29:10.019Z,1.60
2022-08-03T20:31:53.188Z,1.42
2022-08-03T20:34:39.051Z,1.50
2022-08-03T20:37:21.863Z,1.50
2022-08-03T20:40:07.172Z,1.55
2022-08-03T20:42:50.076Z,1.50
2022-08-03T20:45:58.382Z,1.60
2022-08-03T20:48:36.307Z,1.38
2022-08-03T20:51:49.221Z,1.40
2022-08-03T20:54:30.810Z,1.42
2022-08-03T20:57:16.411Z,1.77
2022-08-03T21:00:04.131Z,1.40
2022-08-03T21:02:47.069Z,1.50
2022-08-03T21:05:50.997Z,1.63
2022-08-03T21:08:37.294Z,1.40
2022-08-03T21:11:41.623Z,2.00
2022-08-03T21:14:26.947Z,1.35
2022-08-03T21:17:25.045Z,1.77
2022-08-03T21:20:13.564Z,1.48
2022-08-03T21:23:00.787Z,1.58
2022-08-03T21:25:44.246Z,1.55
2022-08-03T21:28:27.973Z,1.60
2022-08-03T21:31:12.139Z,1.45
2022-08-03T21:33:57.786Z,1.58
2022-08-03T21:36:40.835Z,1.27
2022-08-03T21:39:23.751Z,1.35
2022-08-03T21:42:06.730Z,1.30
2022-08-03T21:44:49.491Z,1.60
2022-08-03T21:47:36.785Z,1.38
2022-08-03T21:50:19.784Z,1.20
2022-08-03T21:53:02.511Z,1.38
2022-08-03T21:55:47.783Z,1.50
2022-08-03T21:58:32.353Z,1.17
2022-08-03T22:01:15.646Z,1.67
2022-08-03T22:04:00.209Z,1.52
2022-08-03T22:06:45.506Z,1.80
2022-08-03T22:09:28.409Z,1.70
2022-08-03T22:12:11.169Z,1.60
2022-08-03T22:15:00.520Z,1.50
2022-08-03T22:17:56.359Z,1.60
2022-08-03T22:20:41.348Z,1.95
2022-08-03T22:23:25.835Z,1.38
2022-08-03T22:26:14.331Z,1.60
2022-08-03T22:28:57.963Z,1.60
2022-08-03T22:31:58.459Z,1.60
2022-08-03T22:34:43.751Z,1.70
2022-08-03T22:37:28.810Z,1.67
2022-08-03T22:40:14.631Z,1.60
2022-08-03T22:42:57.938Z,1.65
2022-08-03T22:46:07.980Z,1.73
2022-08-03T22:48:44.643Z,1.30
2022-08-03T22:51:27.624Z,1.50
2022-08-03T22:54:12.779Z,1.70
2022-08-03T22:56:55.489Z,1.50
2022-08-03T22:59:42.004Z,1.45
2022-08-03T23:02:25.486Z,1.38
2022-08-03T23:05:11.042Z,1.85
2022-08-03T23:08:13.958Z,1.52
2022-08-03T23:11:02.081Z,1.50
2022-08-03T23:13:47.737Z,1.40
2022-08-03T23:16:30.704Z,1.40
2022-08-03T23:19:17.125Z,1.48
2022-08-03T23:22:07.019Z,1.38
2022-08-03T23:25:10.001Z,1.40
2022-08-03T23:28:04.862Z,1.70
2022-08-03T23:30:49.760Z,1.50
2022-08-03T23:33:32.630Z,1.38
2022-08-03T23:36:31.066Z,1.40
2022-08-03T23:39:16.114Z,1.50
2022-08-03T23:42:00.547Z,1.42
2022-08-03T23:44:45.548Z,1.50
2022-08-03T23:47:46.998Z,1.73
2022-08-03T23:50:36.001Z,1.15
2022-08-03T23:53:21.713Z,1.42
2022-08-03T23:56:14.863Z,1.95
2022-08-03T23:59:02.564Z,1.80
